sensor_id;sensor_type;location;lat;lon;timestamp;temperature;humidity
12700;DHT22;6414;49.570;6.060;2023-02-01T00:00:24;4.30;99.90
12700;DHT22;6414;49.570;6.060;2023-02-01T00:03:10;4.30;99.90
12700;DHT22;6414;49.570;6.060;2023-02-01T00:05:57;4.20;99.90
12700;DHT22;6414;49.570;6.060;2023-02-01T00:08:42;4.30;99.90
12700;DHT22;6414;49.570;6.060;2023-02-01T00:11:27;4.30;99.90
12700;DHT22;6414;49.570;6.060;2023-02-01T00:14:12;4.30;99.90
12700;DHT22;6414;49.570;6.060;2023-02-01T00:16:58;4.30;99.90
12700;DHT22;6414;49.570;6.060;2023-02-01T00:19:43;4.30;99.90
12700;DHT22;6414;49.570;6.060;2023-02-01T00:22:28;4.30;99.90
12700;DHT22;6414;49.570;6.060;2023-02-01T00:25:14;4.40;99.90
12700;DHT22;6414;49.570;6.060;2023-02-01T00:27:59;4.30;99.90
12700;DHT22;6414;49.570;6.060;2023-02-01T00:30:45;4.40;99.90
12700;DHT22;6414;49.570;6.060;2023-02-01T00:33:31;4.40;99.90
12700;DHT22;6414;49.570;6.060;2023-02-01T00:36:16;4.40;99.90
12700;DHT22;6414;49.570;6.060;2023-02-01T00:39:02;4.40;99.90
12700;DHT22;6414;49.570;6.060;2023-02-01T00:41:48;4.50;99.90
12700;DHT22;6414;49.570;6.060;2023-02-01T00:44:33;4.50;99.90
12700;DHT22;6414;49.570;6.060;2023-02-01T00:47:19;4.40;99.90
12700;DHT22;6414;49.570;6.060;2023-02-01T00:50:05;4.50;99.90
12700;DHT22;6414;49.570;6.060;2023-02-01T00:52:51;4.60;99.90
12700;DHT22;6414;49.570;6.060;2023-02-01T00:55:36;4.50;99.90
12700;DHT22;6414;49.570;6.060;2023-02-01T00:58:21;4.60;99.90
12700;DHT22;6414;49.570;6.060;2023-02-01T01:01:08;4.60;99.90
12700;DHT22;6414;49.570;6.060;2023-02-01T01:03:55;4.60;99.90
12700;DHT22;6414;49.570;6.060;2023-02-01T01:06:38;4.60;99.90
12700;DHT22;6414;49.570;6.060;2023-02-01T01:09:24;4.60;99.90
12700;DHT22;6414;49.570;6.060;2023-02-01T01:12:10;4.60;99.90
12700;DHT22;6414;49.570;6.060;2023-02-01T01:14:56;4.60;99.90
12700;DHT22;6414;49.570;6.060;2023-02-01T01:17:42;4.60;99.90
12700;DHT22;6414;49.570;6.060;2023-02-01T01:20:27;4.60;99.90
12700;DHT22;6414;49.570;6.060;2023-02-01T01:23:13;4.60;99.90
12700;DHT22;6414;49.570;6.060;2023-02-01T01:25:58;4.60;99.90
12700;DHT22;6414;49.570;6.060;2023-02-01T01:28:44;4.60;99.90
12700;DHT22;6414;49.570;6.060;2023-02-01T01:31:30;4.60;99.90
12700;DHT22;6414;49.570;6.060;2023-02-01T01:34:15;4.60;99.90
12700;DHT22;6414;49.570;6.060;2023-02-01T01:37:01;4.60;99.90
12700;DHT22;6414;49.570;6.060;2023-02-01T01:39:47;4.60;99.90
12700;DHT22;6414;49.570;6.060;2023-02-01T01:42:40;4.60;99.90
12700;DHT22;6414;49.570;6.060;2023-02-01T01:45:25;4.60;99.90
12700;DHT22;6414;49.570;6.060;2023-02-01T01:48:25;4.70;99.90
12700;DHT22;6414;49.570;6.060;2023-02-01T01:51:08;4.70;99.90
12700;DHT22;6414;49.570;6.060;2023-02-01T01:53:55;4.70;99.90
12700;DHT22;6414;49.570;6.060;2023-02-01T01:56:38;4.70;99.90
12700;DHT22;6414;49.570;6.060;2023-02-01T01:59:24;4.70;99.90
12700;DHT22;6414;49.570;6.060;2023-02-01T02:02:09;4.70;99.90
12700;DHT22;6414;49.570;6.060;2023-02-01T02:04:55;4.60;99.90
12700;DHT22;6414;49.570;6.060;2023-02-01T02:07:41;4.60;99.90
12700;DHT22;6414;49.570;6.060;2023-02-01T02:10:26;4.60;99.90
12700;DHT22;6414;49.570;6.060;2023-02-01T02:13:13;4.70;99.90
12700;DHT22;6414;49.570;6.060;2023-02-01T02:16:12;4.60;99.90
12700;DHT22;6414;49.570;6.060;2023-02-01T02:22:42;4.70;99.90
12700;DHT22;6414;49.570;6.060;2023-02-01T02:26:00;4.70;99.90
12700;DHT22;6414;49.570;6.060;2023-02-01T02:34:54;4.80;99.90
12700;DHT22;6414;49.570;6.060;2023-02-01T02:37:45;4.80;99.90
12700;DHT22;6414;49.570;6.060;2023-02-01T02:43:27;4.80;99.90
12700;DHT22;6414;49.570;6.060;2023-02-01T02:46:30;4.80;99.90
12700;DHT22;6414;49.570;6.060;2023-02-01T02:49:43;4.90;99.90
12700;DHT22;6414;49.570;6.060;2023-02-01T02:52:27;4.90;99.90
12700;DHT22;6414;49.570;6.060;2023-02-01T02:55:31;4.80;99.90
12700;DHT22;6414;49.570;6.060;2023-02-01T02:58:17;4.90;99.90
12700;DHT22;6414;49.570;6.060;2023-02-01T03:01:21;4.90;99.90
12700;DHT22;6414;49.570;6.060;2023-02-01T03:04:25;4.90;99.90
12700;DHT22;6414;49.570;6.060;2023-02-01T03:10:35;4.80;99.90
12700;DHT22;6414;49.570;6.060;2023-02-01T03:16:28;4.70;99.90
12700;DHT22;6414;49.570;6.060;2023-02-01T03:19:31;4.70;99.90
12700;DHT22;6414;49.570;6.060;2023-02-01T03:22:15;4.70;99.90
12700;DHT22;6414;49.570;6.060;2023-02-01T03:25:05;4.70;99.90
12700;DHT22;6414;49.570;6.060;2023-02-01T03:27:52;4.70;99.90
12700;DHT22;6414;49.570;6.060;2023-02-01T03:30:41;4.70;99.90
12700;DHT22;6414;49.570;6.060;2023-02-01T03:33:24;4.60;99.90
12700;DHT22;6414;49.570;6.060;2023-02-01T03:36:17;4.60;99.90
12700;DHT22;6414;49.570;6.060;2023-02-01T03:39:08;4.60;99.90
12700;DHT22;6414;49.570;6.060;2023-02-01T03:42:12;4.70;99.90
12700;DHT22;6414;49.570;6.060;2023-02-01T03:47:58;4.70;99.90
12700;DHT22;6414;49.570;6.060;2023-02-01T03:50:45;4.70;99.90
12700;DHT22;6414;49.570;6.060;2023-02-01T03:53:29;4.70;99.90
12700;DHT22;6414;49.570;6.060;2023-02-01T03:56:15;4.70;99.90
12700;DHT22;6414;49.570;6.060;2023-02-01T03:59:00;4.70;99.90
12700;DHT22;6414;49.570;6.060;2023-02-01T04:01:46;4.80;99.90
12700;DHT22;6414;49.570;6.060;2023-02-01T04:04:32;4.80;99.90
12700;DHT22;6414;49.570;6.060;2023-02-01T04:07:18;4.70;99.90
12700;DHT22;6414;49.570;6.060;2023-02-01T04:10:04;4.70;99.90
12700;DHT22;6414;49.570;6.060;2023-02-01T04:12:49;4.70;99.90
12700;DHT22;6414;49.570;6.060;2023-02-01T04:15:34;4.70;99.90
12700;DHT22;6414;49.570;6.060;2023-02-01T04:18:20;4.70;99.90
12700;DHT22;6414;49.570;6.060;2023-02-01T04:21:06;4.60;99.90
12700;DHT22;6414;49.570;6.060;2023-02-01T04:23:51;4.70;99.90
12700;DHT22;6414;49.570;6.060;2023-02-01T04:26:37;4.60;99.90
12700;DHT22;6414;49.570;6.060;2023-02-01T04:29:22;4.60;99.90
12700;DHT22;6414;49.570;6.060;2023-02-01T04:32:08;4.60;99.90
12700;DHT22;6414;49.570;6.060;2023-02-01T04:34:54;4.60;99.90
12700;DHT22;6414;49.570;6.060;2023-02-01T04:37:41;4.60;99.90
12700;DHT22;6414;49.570;6.060;2023-02-01T04:40:26;4.60;99.90
12700;DHT22;6414;49.570;6.060;2023-02-01T04:43:12;4.60;99.90
12700;DHT22;6414;49.570;6.060;2023-02-01T04:45:57;4.60;99.90
12700;DHT22;6414;49.570;6.060;2023-02-01T04:48:43;4.60;99.90
12700;DHT22;6414;49.570;6.060;2023-02-01T04:51:29;4.60;99.90
12700;DHT22;6414;49.570;6.060;2023-02-01T04:54:15;4.60;99.90
12700;DHT22;6414;49.570;6.060;2023-02-01T04:57:01;4.60;99.90
12700;DHT22;6414;49.570;6.060;2023-02-01T04:59:47;4.60;99.90
12700;DHT22;6414;49.570;6.060;2023-02-01T05:02:33;4.60;99.90
12700;DHT22;6414;49.570;6.060;2023-02-01T05:05:19;4.60;99.90
12700;DHT22;6414;49.570;6.060;2023-02-01T05:08:05;4.60;99.90
12700;DHT22;6414;49.570;6.060;2023-02-01T05:10:50;4.50;99.90
12700;DHT22;6414;49.570;6.060;2023-02-01T05:13:35;4.50;99.90
12700;DHT22;6414;49.570;6.060;2023-02-01T05:16:36;4.50;99.90
12700;DHT22;6414;49.570;6.060;2023-02-01T05:19:22;4.50;99.90
12700;DHT22;6414;49.570;6.060;2023-02-01T05:22:07;4.60;99.90
12700;DHT22;6414;49.570;6.060;2023-02-01T05:24:54;4.60;99.90
12700;DHT22;6414;49.570;6.060;2023-02-01T05:27:39;4.60;99.90
12700;DHT22;6414;49.570;6.060;2023-02-01T05:30:26;4.50;99.90
12700;DHT22;6414;49.570;6.060;2023-02-01T05:33:12;4.60;99.90
12700;DHT22;6414;49.570;6.060;2023-02-01T05:35:58;4.60;99.90
12700;DHT22;6414;49.570;6.060;2023-02-01T05:38:43;4.50;99.90
12700;DHT22;6414;49.570;6.060;2023-02-01T05:41:29;4.50;99.90
12700;DHT22;6414;49.570;6.060;2023-02-01T05:44:14;4.40;99.90
12700;DHT22;6414;49.570;6.060;2023-02-01T05:46:59;4.40;99.90
12700;DHT22;6414;49.570;6.060;2023-02-01T05:49:44;4.30;99.90
12700;DHT22;6414;49.570;6.060;2023-02-01T05:52:30;4.30;99.90
12700;DHT22;6414;49.570;6.060;2023-02-01T05:55:15;4.40;99.90
12700;DHT22;6414;49.570;6.060;2023-02-01T05:58:00;4.40;99.90
12700;DHT22;6414;49.570;6.060;2023-02-01T06:00:47;4.40;99.90
12700;DHT22;6414;49.570;6.060;2023-02-01T06:03:32;4.30;99.90
12700;DHT22;6414;49.570;6.060;2023-02-01T06:06:17;4.40;99.90
12700;DHT22;6414;49.570;6.060;2023-02-01T06:09:03;4.20;99.90
12700;DHT22;6414;49.570;6.060;2023-02-01T06:11:49;4.20;99.90
12700;DHT22;6414;49.570;6.060;2023-02-01T06:14:35;4.10;99.90
12700;DHT22;6414;49.570;6.060;2023-02-01T06:17:20;4.00;99.90
12700;DHT22;6414;49.570;6.060;2023-02-01T06:20:07;3.80;99.90
12700;DHT22;6414;49.570;6.060;2023-02-01T06:22:52;3.90;99.90
12700;DHT22;6414;49.570;6.060;2023-02-01T06:25:37;3.80;99.90
12700;DHT22;6414;49.570;6.060;2023-02-01T06:28:23;3.80;99.90
12700;DHT22;6414;49.570;6.060;2023-02-01T06:31:08;3.90;99.90
12700;DHT22;6414;49.570;6.060;2023-02-01T06:33:54;3.90;99.90
12700;DHT22;6414;49.570;6.060;2023-02-01T06:36:39;3.90;99.90
12700;DHT22;6414;49.570;6.060;2023-02-01T06:39:25;3.70;99.90
12700;DHT22;6414;49.570;6.060;2023-02-01T06:42:10;3.70;99.90
12700;DHT22;6414;49.570;6.060;2023-02-01T06:44:55;3.60;99.90
12700;DHT22;6414;49.570;6.060;2023-02-01T06:47:41;3.60;99.90
12700;DHT22;6414;49.570;6.060;2023-02-01T06:50:27;3.70;99.90
12700;DHT22;6414;49.570;6.060;2023-02-01T06:53:13;3.70;99.90
12700;DHT22;6414;49.570;6.060;2023-02-01T06:55:59;3.70;99.90
12700;DHT22;6414;49.570;6.060;2023-02-01T06:58:44;3.70;99.90
12700;DHT22;6414;49.570;6.060;2023-02-01T07:01:29;3.40;99.90
12700;DHT22;6414;49.570;6.060;2023-02-01T07:04:14;3.50;99.90
12700;DHT22;6414;49.570;6.060;2023-02-01T07:07:00;3.50;99.90
12700;DHT22;6414;49.570;6.060;2023-02-01T07:09:46;3.50;99.90
12700;DHT22;6414;49.570;6.060;2023-02-01T07:12:32;3.50;99.90
12700;DHT22;6414;49.570;6.060;2023-02-01T07:15:18;3.50;99.90
12700;DHT22;6414;49.570;6.060;2023-02-01T07:18:03;3.50;99.90
12700;DHT22;6414;49.570;6.060;2023-02-01T07:20:51;3.50;99.90
12700;DHT22;6414;49.570;6.060;2023-02-01T07:23:37;3.60;99.90
12700;DHT22;6414;49.570;6.060;2023-02-01T07:26:24;3.60;99.90
12700;DHT22;6414;49.570;6.060;2023-02-01T07:29:09;3.70;99.90
12700;DHT22;6414;49.570;6.060;2023-02-01T07:31:55;3.60;99.90
12700;DHT22;6414;49.570;6.060;2023-02-01T07:34:41;3.60;99.90
12700;DHT22;6414;49.570;6.060;2023-02-01T07:37:26;3.60;99.90
12700;DHT22;6414;49.570;6.060;2023-02-01T07:40:12;3.60;99.90
12700;DHT22;6414;49.570;6.060;2023-02-01T07:42:57;3.60;99.90
12700;DHT22;6414;49.570;6.060;2023-02-01T07:45:42;3.40;99.90
12700;DHT22;6414;49.570;6.060;2023-02-01T07:48:28;3.40;99.90
12700;DHT22;6414;49.570;6.060;2023-02-01T07:51:15;3.30;99.90
12700;DHT22;6414;49.570;6.060;2023-02-01T07:54:00;3.30;99.90
12700;DHT22;6414;49.570;6.060;2023-02-01T07:56:46;3.40;99.90
12700;DHT22;6414;49.570;6.060;2023-02-01T07:59:31;3.40;99.90
12700;DHT22;6414;49.570;6.060;2023-02-01T08:02:17;3.50;99.90
12700;DHT22;6414;49.570;6.060;2023-02-01T08:05:02;3.50;99.90
12700;DHT22;6414;49.570;6.060;2023-02-01T08:07:51;3.60;99.90
12700;DHT22;6414;49.570;6.060;2023-02-01T08:10:37;3.50;99.90
12700;DHT22;6414;49.570;6.060;2023-02-01T08:13:23;3.60;99.90
12700;DHT22;6414;49.570;6.060;2023-02-01T08:16:08;3.70;99.90
12700;DHT22;6414;49.570;6.060;2023-02-01T08:18:54;3.90;99.90
12700;DHT22;6414;49.570;6.060;2023-02-01T08:21:40;3.90;99.90
12700;DHT22;6414;49.570;6.060;2023-02-01T08:24:26;4.00;99.90
12700;DHT22;6414;49.570;6.060;2023-02-01T08:27:13;4.00;99.90
12700;DHT22;6414;49.570;6.060;2023-02-01T08:29:59;4.00;99.90
12700;DHT22;6414;49.570;6.060;2023-02-01T08:32:44;4.00;99.90
12700;DHT22;6414;49.570;6.060;2023-02-01T08:35:30;4.00;99.90
12700;DHT22;6414;49.570;6.060;2023-02-01T08:38:16;3.90;99.90
12700;DHT22;6414;49.570;6.060;2023-02-01T08:41:08;4.00;99.90
12700;DHT22;6414;49.570;6.060;2023-02-01T08:43:50;4.00;99.90
12700;DHT22;6414;49.570;6.060;2023-02-01T08:46:35;4.10;99.90
12700;DHT22;6414;49.570;6.060;2023-02-01T08:49:21;4.10;99.90
12700;DHT22;6414;49.570;6.060;2023-02-01T08:52:08;4.10;99.90
12700;DHT22;6414;49.570;6.060;2023-02-01T08:54:53;4.00;99.90
12700;DHT22;6414;49.570;6.060;2023-02-01T08:57:40;4.20;99.90
12700;DHT22;6414;49.570;6.060;2023-02-01T09:00:25;4.20;99.90
12700;DHT22;6414;49.570;6.060;2023-02-01T09:03:10;4.20;99.90
12700;DHT22;6414;49.570;6.060;2023-02-01T09:06:09;4.20;99.90
12700;DHT22;6414;49.570;6.060;2023-02-01T09:08:53;4.20;99.90
12700;DHT22;6414;49.570;6.060;2023-02-01T09:11:38;4.30;99.90
12700;DHT22;6414;49.570;6.060;2023-02-01T09:14:24;4.40;99.90
12700;DHT22;6414;49.570;6.060;2023-02-01T09:17:10;4.40;99.90
12700;DHT22;6414;49.570;6.060;2023-02-01T09:19:56;4.40;99.90
12700;DHT22;6414;49.570;6.060;2023-02-01T09:22:42;4.50;99.90
12700;DHT22;6414;49.570;6.060;2023-02-01T09:25:27;4.70;99.90
12700;DHT22;6414;49.570;6.060;2023-02-01T09:28:13;4.50;99.90
12700;DHT22;6414;49.570;6.060;2023-02-01T09:30:58;4.60;99.90
12700;DHT22;6414;49.570;6.060;2023-02-01T09:33:44;4.40;99.90
12700;DHT22;6414;49.570;6.060;2023-02-01T09:36:29;4.40;99.90
12700;DHT22;6414;49.570;6.060;2023-02-01T09:39:16;4.50;99.90
12700;DHT22;6414;49.570;6.060;2023-02-01T09:42:31;4.60;99.90
12700;DHT22;6414;49.570;6.060;2023-02-01T09:48:19;4.60;99.90
12700;DHT22;6414;49.570;6.060;2023-02-01T09:51:04;4.50;99.90
12700;DHT22;6414;49.570;6.060;2023-02-01T09:54:06;4.50;99.90
12700;DHT22;6414;49.570;6.060;2023-02-01T09:56:47;4.50;99.90
12700;DHT22;6414;49.570;6.060;2023-02-01T09:59:43;4.60;99.90
12700;DHT22;6414;49.570;6.060;2023-02-01T10:02:24;4.50;99.90
12700;DHT22;6414;49.570;6.060;2023-02-01T10:08:04;4.50;99.90
12700;DHT22;6414;49.570;6.060;2023-02-01T10:10:47;4.60;99.90
12700;DHT22;6414;49.570;6.060;2023-02-01T10:13:49;4.80;99.90
12700;DHT22;6414;49.570;6.060;2023-02-01T10:16:48;4.70;99.90
12700;DHT22;6414;49.570;6.060;2023-02-01T10:25:55;4.90;99.90
12700;DHT22;6414;49.570;6.060;2023-02-01T10:28:40;5.00;99.90
12700;DHT22;6414;49.570;6.060;2023-02-01T10:31:27;5.10;99.90
12700;DHT22;6414;49.570;6.060;2023-02-01T10:34:22;5.10;99.90
12700;DHT22;6414;49.570;6.060;2023-02-01T10:37:29;5.00;99.90
12700;DHT22;6414;49.570;6.060;2023-02-01T10:40:23;5.00;99.90
12700;DHT22;6414;49.570;6.060;2023-02-01T10:43:08;5.30;99.90
12700;DHT22;6414;49.570;6.060;2023-02-01T10:45:54;5.10;99.90
12700;DHT22;6414;49.570;6.060;2023-02-01T10:48:40;5.10;99.90
12700;DHT22;6414;49.570;6.060;2023-02-01T10:51:46;5.10;99.90
12700;DHT22;6414;49.570;6.060;2023-02-01T10:54:36;5.00;99.90
12700;DHT22;6414;49.570;6.060;2023-02-01T10:57:22;5.10;99.90
12700;DHT22;6414;49.570;6.060;2023-02-01T11:00:19;5.10;99.90
12700;DHT22;6414;49.570;6.060;2023-02-01T11:03:19;5.10;99.90
12700;DHT22;6414;49.570;6.060;2023-02-01T11:05:50;5.20;99.90
12700;DHT22;6414;49.570;6.060;2023-02-01T11:08:45;5.00;99.90
12700;DHT22;6414;49.570;6.060;2023-02-01T11:11:28;5.00;99.90
12700;DHT22;6414;49.570;6.060;2023-02-01T11:14:17;5.20;99.90
12700;DHT22;6414;49.570;6.060;2023-02-01T11:20:02;5.00;99.90
12700;DHT22;6414;49.570;6.060;2023-02-01T11:22:54;5.10;99.90
12700;DHT22;6414;49.570;6.060;2023-02-01T11:25:35;5.10;99.90
12700;DHT22;6414;49.570;6.060;2023-02-01T11:28:23;5.20;99.90
12700;DHT22;6414;49.570;6.060;2023-02-01T11:31:10;5.20;99.90
12700;DHT22;6414;49.570;6.060;2023-02-01T11:33:57;5.30;99.90
12700;DHT22;6414;49.570;6.060;2023-02-01T11:36:40;5.20;99.90
12700;DHT22;6414;49.570;6.060;2023-02-01T11:39:30;5.30;99.90
12700;DHT22;6414;49.570;6.060;2023-02-01T11:42:15;5.40;99.90
12700;DHT22;6414;49.570;6.060;2023-02-01T11:48:14;5.40;99.90
12700;DHT22;6414;49.570;6.060;2023-02-01T11:57:10;5.30;99.90
12700;DHT22;6414;49.570;6.060;2023-02-01T12:05:47;5.60;99.90
12700;DHT22;6414;49.570;6.060;2023-02-01T12:11:37;5.60;99.90
12700;DHT22;6414;49.570;6.060;2023-02-01T12:17:42;5.40;99.90
12700;DHT22;6414;49.570;6.060;2023-02-01T12:23:45;5.50;99.90
12700;DHT22;6414;49.570;6.060;2023-02-01T12:30:08;5.90;99.90
12700;DHT22;6414;49.570;6.060;2023-02-01T12:44:10;5.70;99.90
12700;DHT22;6414;49.570;6.060;2023-02-01T12:46:54;5.60;99.90
12700;DHT22;6414;49.570;6.060;2023-02-01T12:52:49;5.70;99.90
12700;DHT22;6414;49.570;6.060;2023-02-01T12:55:38;5.70;99.90
12700;DHT22;6414;49.570;6.060;2023-02-01T12:58:38;5.80;99.90
12700;DHT22;6414;49.570;6.060;2023-02-01T13:01:37;5.70;99.90
12700;DHT22;6414;49.570;6.060;2023-02-01T13:04:34;5.90;99.90
12700;DHT22;6414;49.570;6.060;2023-02-01T13:07:20;5.80;99.90
12700;DHT22;6414;49.570;6.060;2023-02-01T13:10:15;5.90;99.90
12700;DHT22;6414;49.570;6.060;2023-02-01T13:13:04;5.90;99.90
12700;DHT22;6414;49.570;6.060;2023-02-01T13:15:50;5.80;99.90
12700;DHT22;6414;49.570;6.060;2023-02-01T13:18:34;6.00;99.90
12700;DHT22;6414;49.570;6.060;2023-02-01T13:21:25;6.00;99.90
12700;DHT22;6414;49.570;6.060;2023-02-01T13:24:19;6.10;99.90
12700;DHT22;6414;49.570;6.060;2023-02-01T13:26:55;6.50;99.90
12700;DHT22;6414;49.570;6.060;2023-02-01T13:36:13;6.20;99.90
12700;DHT22;6414;49.570;6.060;2023-02-01T13:42:01;6.00;99.90
12700;DHT22;6414;49.570;6.060;2023-02-01T13:44:59;6.00;99.90
12700;DHT22;6414;49.570;6.060;2023-02-01T13:47:44;6.00;99.90
12700;DHT22;6414;49.570;6.060;2023-02-01T13:50:30;6.00;99.90
12700;DHT22;6414;49.570;6.060;2023-02-01T13:53:19;5.90;99.90
12700;DHT22;6414;49.570;6.060;2023-02-01T13:56:01;5.90;99.90
12700;DHT22;6414;49.570;6.060;2023-02-01T13:58:46;5.90;99.90
12700;DHT22;6414;49.570;6.060;2023-02-01T14:01:33;5.90;99.90
12700;DHT22;6414;49.570;6.060;2023-02-01T14:04:46;6.10;99.90
12700;DHT22;6414;49.570;6.060;2023-02-01T14:07:30;6.10;99.90
12700;DHT22;6414;49.570;6.060;2023-02-01T14:10:54;6.10;99.90
12700;DHT22;6414;49.570;6.060;2023-02-01T14:13:39;6.20;99.90
12700;DHT22;6414;49.570;6.060;2023-02-01T14:16:24;6.10;99.90
12700;DHT22;6414;49.570;6.060;2023-02-01T14:19:26;6.10;99.90
12700;DHT22;6414;49.570;6.060;2023-02-01T14:24:59;6.10;99.90
12700;DHT22;6414;49.570;6.060;2023-02-01T14:27:45;6.10;99.90
12700;DHT22;6414;49.570;6.060;2023-02-01T14:30:31;6.00;99.90
12700;DHT22;6414;49.570;6.060;2023-02-01T14:33:23;5.90;99.90
12700;DHT22;6414;49.570;6.060;2023-02-01T14:36:09;5.70;99.90
12700;DHT22;6414;49.570;6.060;2023-02-01T14:38:53;5.80;99.90
12700;DHT22;6414;49.570;6.060;2023-02-01T14:41:43;5.70;99.90
12700;DHT22;6414;49.570;6.060;2023-02-01T14:44:26;5.60;99.90
12700;DHT22;6414;49.570;6.060;2023-02-01T14:47:11;5.60;99.90
12700;DHT22;6414;49.570;6.060;2023-02-01T14:50:00;5.50;99.90
12700;DHT22;6414;49.570;6.060;2023-02-01T14:52:46;5.60;99.90
12700;DHT22;6414;49.570;6.060;2023-02-01T14:58:44;5.80;99.90
12700;DHT22;6414;49.570;6.060;2023-02-01T15:01:31;5.80;99.90
12700;DHT22;6414;49.570;6.060;2023-02-01T15:04:17;5.90;99.90
12700;DHT22;6414;49.570;6.060;2023-02-01T15:07:05;5.90;99.90
12700;DHT22;6414;49.570;6.060;2023-02-01T15:09:50;5.90;99.90
12700;DHT22;6414;49.570;6.060;2023-02-01T15:12:35;5.90;99.90
12700;DHT22;6414;49.570;6.060;2023-02-01T15:15:22;5.80;99.90
12700;DHT22;6414;49.570;6.060;2023-02-01T15:18:14;5.80;99.90
12700;DHT22;6414;49.570;6.060;2023-02-01T15:20:59;5.70;99.90
12700;DHT22;6414;49.570;6.060;2023-02-01T15:23:45;5.70;99.90
12700;DHT22;6414;49.570;6.060;2023-02-01T15:26:31;5.70;99.90
12700;DHT22;6414;49.570;6.060;2023-02-01T15:29:15;5.70;99.90
12700;DHT22;6414;49.570;6.060;2023-02-01T15:32:01;5.70;99.90
12700;DHT22;6414;49.570;6.060;2023-02-01T15:34:47;5.70;99.90
12700;DHT22;6414;49.570;6.060;2023-02-01T15:37:32;5.60;99.90
12700;DHT22;6414;49.570;6.060;2023-02-01T15:40:19;5.50;99.90
12700;DHT22;6414;49.570;6.060;2023-02-01T15:43:04;5.50;99.90
12700;DHT22;6414;49.570;6.060;2023-02-01T15:45:49;5.50;99.90
12700;DHT22;6414;49.570;6.060;2023-02-01T15:48:44;5.50;99.90
12700;DHT22;6414;49.570;6.060;2023-02-01T15:51:29;5.40;99.90
12700;DHT22;6414;49.570;6.060;2023-02-01T15:54:22;5.30;99.90
12700;DHT22;6414;49.570;6.060;2023-02-01T15:57:03;5.30;99.90
12700;DHT22;6414;49.570;6.060;2023-02-01T15:59:49;5.20;99.90
12700;DHT22;6414;49.570;6.060;2023-02-01T16:02:35;5.20;99.90
12700;DHT22;6414;49.570;6.060;2023-02-01T16:05:34;5.30;99.90
12700;DHT22;6414;49.570;6.060;2023-02-01T16:08:22;5.30;99.90
12700;DHT22;6414;49.570;6.060;2023-02-01T16:13:53;5.40;99.90
12700;DHT22;6414;49.570;6.060;2023-02-01T16:16:39;5.40;99.90
12700;DHT22;6414;49.570;6.060;2023-02-01T16:19:26;5.40;99.90
12700;DHT22;6414;49.570;6.060;2023-02-01T16:22:11;5.40;99.90
12700;DHT22;6414;49.570;6.060;2023-02-01T16:24:56;5.40;99.90
12700;DHT22;6414;49.570;6.060;2023-02-01T16:27:42;5.40;99.90
12700;DHT22;6414;49.570;6.060;2023-02-01T16:30:28;5.40;99.90
12700;DHT22;6414;49.570;6.060;2023-02-01T16:33:16;5.30;99.90
12700;DHT22;6414;49.570;6.060;2023-02-01T16:35:59;5.30;99.90
12700;DHT22;6414;49.570;6.060;2023-02-01T16:38:45;5.30;99.90
12700;DHT22;6414;49.570;6.060;2023-02-01T16:41:30;5.40;99.90
12700;DHT22;6414;49.570;6.060;2023-02-01T16:44:17;5.40;99.90
12700;DHT22;6414;49.570;6.060;2023-02-01T16:47:02;5.40;99.90
12700;DHT22;6414;49.570;6.060;2023-02-01T16:49:48;5.30;99.90
12700;DHT22;6414;49.570;6.060;2023-02-01T16:52:33;5.20;99.90
12700;DHT22;6414;49.570;6.060;2023-02-01T16:55:19;5.10;99.90
12700;DHT22;6414;49.570;6.060;2023-02-01T16:58:04;5.00;99.90
12700;DHT22;6414;49.570;6.060;2023-02-01T17:00:50;5.00;99.90
12700;DHT22;6414;49.570;6.060;2023-02-01T17:03:35;5.00;99.90
12700;DHT22;6414;49.570;6.060;2023-02-01T17:06:22;5.00;99.90
12700;DHT22;6414;49.570;6.060;2023-02-01T17:09:08;5.00;99.90
12700;DHT22;6414;49.570;6.060;2023-02-01T17:11:53;5.00;99.90
12700;DHT22;6414;49.570;6.060;2023-02-01T17:14:39;4.90;99.90
12700;DHT22;6414;49.570;6.060;2023-02-01T17:17:47;4.90;99.90
12700;DHT22;6414;49.570;6.060;2023-02-01T17:20:23;4.90;99.90
12700;DHT22;6414;49.570;6.060;2023-02-01T17:23:09;4.90;99.90
12700;DHT22;6414;49.570;6.060;2023-02-01T17:25:55;4.90;99.90
12700;DHT22;6414;49.570;6.060;2023-02-01T17:28:40;4.90;99.90
12700;DHT22;6414;49.570;6.060;2023-02-01T17:31:26;5.00;99.90
12700;DHT22;6414;49.570;6.060;2023-02-01T17:34:11;4.90;99.90
12700;DHT22;6414;49.570;6.060;2023-02-01T17:36:57;4.80;99.90
12700;DHT22;6414;49.570;6.060;2023-02-01T17:39:42;4.80;99.90
12700;DHT22;6414;49.570;6.060;2023-02-01T17:42:39;4.90;99.90
12700;DHT22;6414;49.570;6.060;2023-02-01T17:48:20;4.80;99.90
12700;DHT22;6414;49.570;6.060;2023-02-01T17:51:08;4.80;99.90
12700;DHT22;6414;49.570;6.060;2023-02-01T17:53:51;4.70;99.90
12700;DHT22;6414;49.570;6.060;2023-02-01T17:56:36;4.60;99.90
12700;DHT22;6414;49.570;6.060;2023-02-01T17:59:22;4.40;99.90
12700;DHT22;6414;49.570;6.060;2023-02-01T18:02:17;4.50;99.90
12700;DHT22;6414;49.570;6.060;2023-02-01T18:05:07;4.70;99.90
12700;DHT22;6414;49.570;6.060;2023-02-01T18:07:48;4.70;99.90
12700;DHT22;6414;49.570;6.060;2023-02-01T18:10:34;4.70;99.90
12700;DHT22;6414;49.570;6.060;2023-02-01T18:13:19;4.80;99.90
12700;DHT22;6414;49.570;6.060;2023-02-01T18:16:05;4.90;99.90
12700;DHT22;6414;49.570;6.060;2023-02-01T18:18:51;5.00;99.90
12700;DHT22;6414;49.570;6.060;2023-02-01T18:21:37;5.10;99.90
12700;DHT22;6414;49.570;6.060;2023-02-01T18:24:22;5.10;99.90
12700;DHT22;6414;49.570;6.060;2023-02-01T18:27:08;5.10;99.90
12700;DHT22;6414;49.570;6.060;2023-02-01T18:29:54;5.10;99.90
12700;DHT22;6414;49.570;6.060;2023-02-01T18:32:40;5.10;99.90
12700;DHT22;6414;49.570;6.060;2023-02-01T18:35:26;5.10;99.90
12700;DHT22;6414;49.570;6.060;2023-02-01T18:38:11;5.20;99.90
12700;DHT22;6414;49.570;6.060;2023-02-01T18:40:57;5.10;99.90
12700;DHT22;6414;49.570;6.060;2023-02-01T18:43:42;5.10;99.90
12700;DHT22;6414;49.570;6.060;2023-02-01T18:46:27;5.20;99.90
12700;DHT22;6414;49.570;6.060;2023-02-01T18:49:13;5.20;99.90
12700;DHT22;6414;49.570;6.060;2023-02-01T18:51:58;5.20;99.90
12700;DHT22;6414;49.570;6.060;2023-02-01T18:54:44;5.20;99.90
12700;DHT22;6414;49.570;6.060;2023-02-01T18:57:29;5.10;99.90
12700;DHT22;6414;49.570;6.060;2023-02-01T19:00:14;5.10;99.90
12700;DHT22;6414;49.570;6.060;2023-02-01T19:03:01;5.20;99.90
12700;DHT22;6414;49.570;6.060;2023-02-01T19:05:46;5.20;99.90
12700;DHT22;6414;49.570;6.060;2023-02-01T19:08:32;5.20;99.90
12700;DHT22;6414;49.570;6.060;2023-02-01T19:11:18;5.20;99.90
12700;DHT22;6414;49.570;6.060;2023-02-01T19:14:03;5.20;99.90
12700;DHT22;6414;49.570;6.060;2023-02-01T19:16:49;5.30;99.90
12700;DHT22;6414;49.570;6.060;2023-02-01T19:19:34;5.30;99.90
12700;DHT22;6414;49.570;6.060;2023-02-01T19:22:21;5.20;99.90
12700;DHT22;6414;49.570;6.060;2023-02-01T19:25:14;5.30;99.90
12700;DHT22;6414;49.570;6.060;2023-02-01T19:27:57;5.30;99.90
12700;DHT22;6414;49.570;6.060;2023-02-01T19:30:43;5.30;99.90
12700;DHT22;6414;49.570;6.060;2023-02-01T19:33:28;5.20;99.90
12700;DHT22;6414;49.570;6.060;2023-02-01T19:36:13;5.20;99.90
12700;DHT22;6414;49.570;6.060;2023-02-01T19:38:59;5.20;99.90
12700;DHT22;6414;49.570;6.060;2023-02-01T19:41:45;5.20;99.90
12700;DHT22;6414;49.570;6.060;2023-02-01T19:44:30;5.20;99.90
12700;DHT22;6414;49.570;6.060;2023-02-01T19:47:17;5.20;99.90
12700;DHT22;6414;49.570;6.060;2023-02-01T19:50:02;5.20;99.90
12700;DHT22;6414;49.570;6.060;2023-02-01T19:52:47;5.20;99.90